Time;durP1;ratioP1;P1;durP2;ratioP2;P2;SDS_P1;SDS_P2;PMS_P1;PMS_P2;Temp;Humidity;BMP_temperature;BMP_pressure;BME280_temperature;BME280_humidity;BME280_pressure;Samples;Min_cycle;Max_cycle;Signal;HPM_P1;HPM_P2
2023/12/22 00:00:19;;;;;;;3.30;1.90;;;21.30;50.40;;;;;;4982313;28;20026;-68
2023/12/22 00:02:45;;;;;;;3.42;1.90;;;21.30;50.40;;;;;;4982009;28;20518;-68
2023/12/22 00:05:10;;;;;;;3.05;1.52;;;21.30;50.40;;;;;;4981117;28;20038;-68
2023/12/22 00:07:36;;;;;;;3.70;1.80;;;21.30;50.40;;;;;;4982998;28;20394;-68
2023/12/22 00:10:01;;;;;;;4.35;1.90;;;21.20;50.40;;;;;;4998639;28;20035;-68
2023/12/22 00:12:28;;;;;;;3.65;1.80;;;21.20;50.40;;;;;;4983003;28;20113;-68
2023/12/22 00:14:53;;;;;;;3.58;1.70;;;21.20;50.50;;;;;;4985132;28;20525;-68
2023/12/22 00:17:19;;;;;;;3.42;1.80;;;21.20;50.40;;;;;;4981942;28;20207;-68
2023/12/22 00:19:45;;;;;;;3.20;1.80;;;21.20;50.50;;;;;;4982587;28;20368;-68
2023/12/22 00:22:10;;;;;;;3.58;1.90;;;21.20;50.50;;;;;;4981360;28;20074;-68
2023/12/22 00:24:36;;;;;;;4.65;1.83;;;21.10;50.50;;;;;;4981981;28;20046;-68
2023/12/22 00:27:03;;;;;;;3.22;1.60;;;21.10;50.50;;;;;;4997433;28;20053;-68
2023/12/22 00:29:28;;;;;;;3.35;1.65;;;21.10;50.50;;;;;;4985421;28;20022;-68
2023/12/22 00:31:55;;;;;;;4.05;1.75;;;21.10;50.50;;;;;;4982902;28;20030;-68
2023/12/22 00:34:22;;;;;;;3.00;1.50;;;21.10;50.50;;;;;;4979801;28;20106;-68
2023/12/22 00:36:47;;;;;;;2.42;1.30;;;21.10;50.60;;;;;;4981740;28;20592;-68
2023/12/22 00:39:13;;;;;;;3.38;1.70;;;21.00;50.60;;;;;;4983175;28;20598;-68
2023/12/22 00:41:39;;;;;;;3.22;1.70;;;21.10;50.60;;;;;;4982461;28;20031;-69
2023/12/22 00:44:04;;;;;;;2.85;1.60;;;21.00;50.60;;;;;;4981415;28;20029;-68
2023/12/22 00:46:30;;;;;;;2.45;1.48;;;21.00;50.60;;;;;;4983187;28;20038;-68
2023/12/22 00:48:56;;;;;;;3.63;1.80;;;21.00;50.70;;;;;;4981896;28;20034;-69
2023/12/22 00:51:21;;;;;;;3.38;1.65;;;21.00;50.70;;;;;;4981327;28;20037;-67
2023/12/22 00:53:47;;;;;;;2.40;1.50;;;20.90;50.70;;;;;;4981387;28;20494;-67
2023/12/22 00:56:13;;;;;;;3.22;1.60;;;20.90;50.60;;;;;;4980084;28;20108;-67
2023/12/22 00:58:42;;;;;;;2.58;1.40;;;20.90;51.20;;;;;;4982302;28;20031;-67
2023/12/22 01:01:08;;;;;;;3.47;1.85;;;20.90;50.70;;;;;;4980953;28;20085;-68
2023/12/22 01:03:33;;;;;;;2.70;1.55;;;20.90;50.70;;;;;;4982153;28;20038;-68
2023/12/22 01:05:59;;;;;;;2.50;1.45;;;20.90;50.80;;;;;;4981020;28;20034;-68
2023/12/22 01:08:24;;;;;;;2.97;1.50;;;20.90;50.80;;;;;;4981908;28;20812;-68
2023/12/22 01:10:50;;;;;;;3.13;1.95;;;20.90;50.80;;;;;;4980530;28;20095;-68
2023/12/22 01:13:16;;;;;;;3.08;1.52;;;20.90;50.80;;;;;;4979042;28;20045;-67
2023/12/22 01:15:43;;;;;;;2.53;1.45;;;20.90;50.80;;;;;;4980215;28;20018;-66
2023/12/22 01:18:09;;;;;;;2.60;1.50;;;20.80;50.80;;;;;;4981294;28;20498;-68
2023/12/22 01:20:35;;;;;;;2.97;1.40;;;20.80;50.80;;;;;;4979095;28;20113;-67
2023/12/22 01:23:01;;;;;;;3.15;1.52;;;20.80;50.80;;;;;;4980424;28;20117;-67
2023/12/22 01:25:26;;;;;;;2.83;1.30;;;20.80;50.90;;;;;;4980012;28;20030;-67
2023/12/22 01:27:52;;;;;;;2.92;1.50;;;20.80;50.90;;;;;;4996432;28;20035;-66
2023/12/22 01:30:18;;;;;;;2.60;1.30;;;20.80;50.90;;;;;;4982487;28;20141;-66
2023/12/22 01:32:44;;;;;;;2.97;1.65;;;20.70;50.90;;;;;;4981830;28;20023;-67
2023/12/22 01:35:10;;;;;;;3.83;1.67;;;20.70;50.90;;;;;;4981547;28;20344;-66
2023/12/22 01:37:38;;;;;;;2.90;1.50;;;20.70;50.90;;;;;;4981306;28;20038;-67
2023/12/22 01:40:05;;;;;;;2.42;1.30;;;20.70;50.90;;;;;;4994052;28;20755;-67
2023/12/22 01:42:30;;;;;;;2.78;1.50;;;20.70;51.00;;;;;;4979775;28;20030;-67
2023/12/22 01:44:56;;;;;;;2.40;1.30;;;20.70;51.00;;;;;;4983494;28;20031;-67
2023/12/22 01:47:22;;;;;;;2.20;1.40;;;20.60;51.00;;;;;;4996966;28;20034;-67
2023/12/22 01:49:48;;;;;;;2.50;1.42;;;20.60;51.00;;;;;;4981687;28;20070;-67
2023/12/22 01:52:15;;;;;;;2.38;1.30;;;20.60;51.00;;;;;;4977051;28;20033;-67
2023/12/22 01:54:41;;;;;;;2.45;1.40;;;20.60;51.00;;;;;;4977430;28;20125;-67
2023/12/22 01:57:07;;;;;;;2.40;1.42;;;20.60;51.10;;;;;;4996497;28;20081;-67
2023/12/22 01:59:34;;;;;;;2.50;1.50;;;20.60;51.10;;;;;;4980137;28;20035;-67
2023/12/22 02:02:03;;;;;;;3.42;1.67;;;20.60;51.10;;;;;;4980538;28;20030;-68
2023/12/22 02:04:30;;;;;;;2.70;1.40;;;20.50;51.10;;;;;;4979389;28;20037;-68
2023/12/22 02:07:00;;;;;;;2.10;1.30;;;20.50;51.10;;;;;;4980940;28;20557;-68
2023/12/22 02:09:28;;;;;;;2.65;1.40;;;20.50;51.10;;;;;;4980156;28;20062;-68
2023/12/22 02:11:53;;;;;;;3.00;1.63;;;20.50;51.20;;;;;;4980489;28;20030;-68
2023/12/22 02:14:20;;;;;;;2.20;1.40;;;20.50;51.20;;;;;;4979354;28;20022;-68
2023/12/22 02:16:53;;;;;;;2.80;1.40;;;20.50;51.20;;;;;;4994943;28;20033;-68
2023/12/22 02:19:29;;;;;;;2.05;1.35;;;20.50;51.20;;;;;;4981401;28;20030;-68
2023/12/22 02:22:05;;;;;;;2.25;1.20;;;20.50;51.30;;;;;;4980409;28;20022;-68
2023/12/22 02:24:31;;;;;;;1.70;1.00;;;20.40;51.20;;;;;;4980567;28;20113;-68
2023/12/22 02:27:14;;;;;;;2.28;1.13;;;20.50;51.30;;;;;;4981168;28;20518;-68
2023/12/22 02:29:49;;;;;;;2.30;1.35;;;20.40;51.20;;;;;;4981146;28;20033;-68
2023/12/22 02:32:37;;;;;;;2.88;1.30;;;20.40;51.20;;;;;;4980083;28;20055;-68
2023/12/22 02:35:11;;;;;;;2.40;1.10;;;20.40;51.30;;;;;;4980807;28;21009;-69
2023/12/22 02:37:38;;;;;;;2.10;1.20;;;20.40;51.30;;;;;;4978917;28;20123;-68
2023/12/22 02:40:05;;;;;;;2.00;0.90;;;20.40;51.30;;;;;;4981118;28;20484;-69
2023/12/22 02:42:32;;;;;;;3.03;1.25;;;20.30;51.30;;;;;;4980192;28;20109;-68
2023/12/22 02:44:58;;;;;;;2.70;1.27;;;20.30;51.30;;;;;;4978453;28;20025;-69
2023/12/22 02:47:24;;;;;;;2.65;1.33;;;20.30;51.30;;;;;;4979948;28;20030;-69
2023/12/22 02:49:50;;;;;;;2.00;1.20;;;20.30;51.30;;;;;;4980968;28;20489;-68
2023/12/22 02:52:15;;;;;;;2.05;1.10;;;20.30;51.30;;;;;;4977926;28;20041;-69
2023/12/22 02:54:41;;;;;;;2.08;1.20;;;20.30;51.30;;;;;;4978201;28;20044;-68
2023/12/22 02:57:07;;;;;;;2.35;1.08;;;20.30;51.40;;;;;;4981232;28;20035;-68
2023/12/22 02:59:33;;;;;;;2.28;1.38;;;20.30;51.40;;;;;;4982942;28;20056;-68
2023/12/22 03:01:58;;;;;;;2.65;1.30;;;20.30;51.40;;;;;;4979418;28;20105;-68
2023/12/22 03:04:24;;;;;;;2.60;1.30;;;20.30;51.50;;;;;;4979282;28;20363;-68
2023/12/22 03:06:49;;;;;;;1.90;1.17;;;20.30;51.50;;;;;;4996126;28;20019;-68
2023/12/22 03:09:15;;;;;;;1.83;1.10;;;20.30;51.50;;;;;;4979248;28;20041;-68
2023/12/22 03:11:41;;;;;;;2.05;1.10;;;20.30;51.50;;;;;;4980055;28;20451;-67
2023/12/22 03:14:06;;;;;;;1.52;1.00;;;20.20;51.50;;;;;;4980082;28;20030;-67
2023/12/22 03:16:32;;;;;;;1.60;0.98;;;20.30;51.50;;;;;;4995195;28;20041;-67
2023/12/22 03:18:57;;;;;;;2.50;1.30;;;20.20;51.50;;;;;;4980965;28;20030;-67
2023/12/22 03:21:23;;;;;;;2.35;1.10;;;20.20;51.50;;;;;;4979185;28;20039;-66
2023/12/22 03:23:49;;;;;;;2.22;1.20;;;20.20;51.50;;;;;;4979853;28;20495;-67
2023/12/22 03:26:14;;;;;;;2.80;1.30;;;20.20;51.50;;;;;;4979087;28;20022;-67
2023/12/22 03:28:40;;;;;;;2.65;1.27;;;20.20;51.50;;;;;;4978534;28;20035;-67
2023/12/22 03:31:06;;;;;;;1.90;1.20;;;20.20;51.60;;;;;;4980784;28;20104;-67
2023/12/22 03:33:32;;;;;;;2.15;1.02;;;20.20;51.60;;;;;;4995364;28;20019;-67
2023/12/22 03:35:57;;;;;;;3.08;1.27;;;20.20;51.60;;;;;;4978659;28;20509;-67
2023/12/22 03:38:23;;;;;;;2.10;1.10;;;20.20;51.60;;;;;;4994944;28;20037;-67
2023/12/22 03:40:49;;;;;;;1.60;1.00;;;20.10;51.60;;;;;;4978804;28;20474;-67
2023/12/22 03:43:15;;;;;;;2.15;1.40;;;20.10;51.60;;;;;;4978986;28;20027;-67
2023/12/22 03:45:40;;;;;;;2.00;1.10;;;20.10;51.60;;;;;;4980652;28;20045;-66
2023/12/22 03:48:06;;;;;;;2.15;1.20;;;20.10;51.70;;;;;;4979262;28;20466;-68
2023/12/22 03:50:32;;;;;;;2.03;1.10;;;20.10;51.70;;;;;;4979066;28;20109;-67
2023/12/22 03:52:57;;;;;;;1.73;1.00;;;20.10;51.70;;;;;;4977839;28;20049;-67
2023/12/22 03:55:23;;;;;;;1.73;1.10;;;20.10;52.20;;;;;;4977646;28;20034;-67
2023/12/22 03:57:48;;;;;;;1.60;0.85;;;20.10;51.70;;;;;;4979773;28;21025;-67
2023/12/22 04:00:16;;;;;;;2.10;1.00;;;20.10;51.70;;;;;;4979677;28;20157;-68
2023/12/22 04:02:42;;;;;;;1.50;0.90;;;20.10;51.70;;;;;;4980934;28;20027;-67
2023/12/22 04:05:07;;;;;;;1.80;1.08;;;20.00;51.70;;;;;;4979304;28;20034;-67
2023/12/22 04:07:33;;;;;;;1.60;0.95;;;20.00;51.70;;;;;;4978962;28;20027;-67
2023/12/22 04:09:59;;;;;;;1.70;1.05;;;20.00;52.30;;;;;;4978638;28;20023;-67
2023/12/22 04:12:24;;;;;;;1.70;1.10;;;20.00;51.80;;;;;;4978455;28;20046;-67
2023/12/22 04:14:51;;;;;;;1.38;0.98;;;20.00;51.80;;;;;;4978107;28;20140;-67
2023/12/22 04:17:16;;;;;;;2.38;1.20;;;20.00;51.80;;;;;;4978466;28;20054;-67
2023/12/22 04:19:42;;;;;;;1.92;0.95;;;20.00;51.80;;;;;;4983350;28;20140;-67
2023/12/22 04:22:08;;;;;;;2.22;1.10;;;20.00;51.80;;;;;;4981371;28;20753;-68
2023/12/22 04:24:33;;;;;;;1.83;0.95;;;20.00;51.80;;;;;;4997450;28;20118;-68
2023/12/22 04:26:59;;;;;;;1.33;0.80;;;20.00;51.80;;;;;;4982961;28;20113;-68
2023/12/22 04:29:24;;;;;;;2.08;1.08;;;19.90;51.80;;;;;;4981455;28;20463;-68
2023/12/22 04:31:50;;;;;;;1.17;0.80;;;19.90;51.80;;;;;;4982057;28;20042;-67
2023/12/22 04:34:15;;;;;;;1.77;1.00;;;19.90;51.80;;;;;;4982414;28;20041;-67
2023/12/22 04:36:42;;;;;;;2.35;1.13;;;20.00;51.90;;;;;;4981714;28;20059;-67
2023/12/22 04:39:07;;;;;;;1.63;0.90;;;19.90;51.80;;;;;;4981512;28;20398;-68
2023/12/22 04:41:33;;;;;;;1.40;0.90;;;19.90;52.20;;;;;;4980724;28;20027;-68
2023/12/22 04:44:02;;;;;;;1.65;0.90;;;19.90;51.90;;;;;;4981812;28;20030;-68
2023/12/22 04:46:31;;;;;;;1.38;0.90;;;19.90;52.00;;;;;;4982901;28;20045;-67
2023/12/22 04:48:57;;;;;;;1.80;1.00;;;19.90;52.00;;;;;;4983685;28;20550;-68
2023/12/22 04:51:23;;;;;;;0.88;0.77;;;19.90;52.00;;;;;;4981295;28;20110;-68
2023/12/22 04:53:49;;;;;;;1.40;1.00;;;19.90;52.00;;;;;;4980238;28;20490;-67
2023/12/22 04:56:15;;;;;;;1.45;0.95;;;19.90;52.00;;;;;;4984377;28;20018;-68
2023/12/22 04:58:40;;;;;;;1.20;0.80;;;19.90;52.00;;;;;;4981474;28;20038;-68
2023/12/22 05:01:06;;;;;;;1.38;0.80;;;19.80;52.50;;;;;;4981415;28;20407;-68
2023/12/22 05:03:32;;;;;;;1.17;0.90;;;19.80;52.00;;;;;;4997555;28;20027;-68
2023/12/22 05:05:57;;;;;;;1.48;0.90;;;19.80;52.00;;;;;;4979726;28;20376;-68
2023/12/22 05:08:23;;;;;;;0.80;0.70;;;19.80;52.10;;;;;;4980467;28;20030;-68
2023/12/22 05:10:49;;;;;;;1.60;0.82;;;19.80;52.10;;;;;;4982679;28;20033;-68
2023/12/22 05:13:14;;;;;;;2.40;1.00;;;19.80;52.10;;;;;;4981141;28;20030;-68
2023/12/22 05:15:40;;;;;;;1.50;0.95;;;19.80;52.10;;;;;;4980766;28;20034;-68
2023/12/22 05:18:06;;;;;;;1.88;1.10;;;19.80;52.10;;;;;;4981984;28;20031;-68
2023/12/22 05:20:32;;;;;;;1.27;0.80;;;19.80;52.10;;;;;;4980879;28;20079;-68
2023/12/22 05:22:58;;;;;;;1.38;0.77;;;19.80;52.10;;;;;;4981004;28;20532;-68
2023/12/22 05:25:24;;;;;;;1.55;0.90;;;19.80;52.10;;;;;;4996959;28;20282;-68
2023/12/22 05:27:49;;;;;;;1.73;0.90;;;19.80;52.20;;;;;;4984287;28;20439;-68
2023/12/22 05:30:15;;;;;;;1.27;0.90;;;19.80;52.10;;;;;;4982127;28;20027;-68
2023/12/22 05:32:41;;;;;;;1.98;0.93;;;19.70;52.10;;;;;;4979942;28;20395;-67
2023/12/22 05:35:07;;;;;;;1.58;0.80;;;19.80;52.20;;;;;;4981310;28;20053;-67
2023/12/22 05:37:32;;;;;;;1.40;0.90;;;19.80;52.10;;;;;;4996594;28;20027;-67
2023/12/22 05:39:58;;;;;;;1.58;0.88;;;19.70;52.10;;;;;;4980607;28;20565;-66
2023/12/22 05:42:23;;;;;;;1.50;0.93;;;19.70;52.10;;;;;;4980772;28;20039;-68
2023/12/22 05:44:49;;;;;;;1.20;0.90;;;19.70;52.10;;;;;;4982553;28;20487;-68
2023/12/22 05:47:16;;;;;;;1.38;0.88;;;19.70;52.10;;;;;;4982295;28;20157;-67
2023/12/22 05:49:42;;;;;;;1.17;0.80;;;19.70;52.10;;;;;;4978605;28;20392;-68
2023/12/22 05:52:09;;;;;;;1.08;0.93;;;19.70;52.20;;;;;;4978763;28;20070;-67
2023/12/22 05:54:35;;;;;;;1.15;0.80;;;19.70;52.20;;;;;;4983971;28;20030;-68
2023/12/22 05:57:01;;;;;;;1.08;0.80;;;19.80;52.30;;;;;;4993244;28;20595;-67
2023/12/22 05:59:27;;;;;;;1.15;0.70;;;19.70;52.20;;;;;;4979446;28;20153;-68
2023/12/22 06:01:56;;;;;;;1.45;0.82;;;19.70;52.20;;;;;;4981067;28;20488;-68
2023/12/22 06:04:21;;;;;;;1.42;0.80;;;19.70;52.20;;;;;;4979158;28;20054;-67
2023/12/22 06:06:47;;;;;;;1.05;0.70;;;19.70;52.20;;;;;;4995696;28;20120;-67
2023/12/22 06:09:13;;;;;;;0.95;0.70;;;19.70;52.20;;;;;;4980802;28;20045;-68
2023/12/22 06:11:39;;;;;;;2.03;1.00;;;19.70;52.30;;;;;;4980467;28;20026;-68
2023/12/22 06:14:05;;;;;;;1.48;0.80;;;19.70;52.30;;;;;;4980285;28;20022;-68
2023/12/22 06:16:31;;;;;;;1.23;0.80;;;19.60;52.20;;;;;;4982851;28;20074;-67
2023/12/22 06:18:57;;;;;;;1.88;0.80;;;19.70;52.30;;;;;;4995505;28;20517;-67
2023/12/22 06:21:22;;;;;;;2.38;0.80;;;19.60;52.30;;;;;;4981559;28;20057;-67
2023/12/22 06:23:48;;;;;;;1.30;0.75;;;19.70;52.30;;;;;;4979510;28;20100;-68
2023/12/22 06:26:14;;;;;;;0.98;0.60;;;19.70;52.40;;;;;;4978352;28;20039;-67
2023/12/22 06:28:40;;;;;;;1.48;0.80;;;19.70;52.40;;;;;;4980598;28;20062;-68
2023/12/22 06:31:06;;;;;;;1.83;0.85;;;19.70;52.40;;;;;;4982259;28;20096;-67
2023/12/22 06:33:32;;;;;;;2.70;0.90;;;19.60;52.70;;;;;;4993369;28;20029;-70
2023/12/22 06:35:58;;;;;;;1.95;1.15;;;19.80;53.10;;;;;;4980150;28;20022;-69
2023/12/22 06:38:23;;;;;;;2.15;1.20;;;20.20;52.40;;;;;;4978960;28;20023;-69
2023/12/22 06:40:50;;;;;;;3.13;1.08;;;20.60;51.60;;;;;;4978866;28;20026;-70
2023/12/22 06:43:16;;;;;;;2.10;1.00;;;20.90;51.00;;;;;;4979797;28;20165;-69
2023/12/22 06:45:41;;;;;;;2.45;1.30;;;21.10;50.40;;;;;;4978566;28;20543;-68
2023/12/22 06:48:09;;;;;;;1.80;1.00;;;21.30;50.00;;;;;;4980928;28;20482;-69
2023/12/22 06:50:36;;;;;;;2.05;1.10;;;21.40;49.70;;;;;;4978494;28;20499;-67
2023/12/22 06:53:02;;;;;;;2.10;0.95;;;21.50;49.40;;;;;;4981920;28;20050;-70
2023/12/22 06:55:28;;;;;;;2.35;1.17;;;21.60;49.40;;;;;;4981572;28;20022;-69
2023/12/22 06:57:55;;;;;;;2.53;1.20;;;21.70;49.20;;;;;;4979495;28;20462;-69
2023/12/22 07:00:21;;;;;;;1.98;1.00;;;21.80;49.00;;;;;;4980710;28;20544;-70
2023/12/22 07:02:46;;;;;;;2.85;1.20;;;21.90;48.80;;;;;;4994640;28;20041;-70
2023/12/22 07:05:21;;;;;;;2.10;1.05;;;22.00;48.70;;;;;;4980167;28;20030;-69
2023/12/22 07:07:46;;;;;;;1.70;0.93;;;22.10;48.80;;;;;;4979101;28;20053;-70
2023/12/22 07:10:12;;;;;;;1.38;0.80;;;22.10;48.80;;;;;;4979701;28;20490;-70
2023/12/22 07:12:39;;;;;;;1.60;1.00;;;22.20;48.70;;;;;;4978862;28;20042;-70
2023/12/22 07:15:06;;;;;;;1.42;0.80;;;22.20;48.70;;;;;;4981005;28;20022;-70
2023/12/22 07:17:32;;;;;;;1.20;0.80;;;22.30;48.60;;;;;;4980176;28;20026;-70
2023/12/22 07:19:58;;;;;;;1.23;0.80;;;22.30;48.60;;;;;;4981277;28;20034;-70
2023/12/22 07:22:23;;;;;;;1.35;0.88;;;22.30;48.50;;;;;;4994136;28;20062;-70
2023/12/22 07:24:51;;;;;;;1.05;0.77;;;22.40;48.40;;;;;;4979102;28;21028;-70
2023/12/22 07:27:17;;;;;;;1.45;0.90;;;22.50;48.30;;;;;;4978462;28;20039;-70
2023/12/22 07:29:43;;;;;;;0.75;0.63;;;22.50;48.30;;;;;;4980224;28;20186;-70
2023/12/22 07:32:08;;;;;;;1.25;0.77;;;22.60;48.20;;;;;;4981177;28;20483;-71
2023/12/22 07:34:34;;;;;;;1.38;0.88;;;22.60;48.20;;;;;;4977136;28;20459;-70
2023/12/22 07:36:59;;;;;;;1.48;0.90;;;22.70;48.30;;;;;;4977502;28;20443;-70
2023/12/22 07:39:25;;;;;;;2.30;0.98;;;22.70;48.00;;;;;;4994459;28;20030;-69
2023/12/22 07:41:51;;;;;;;1.30;0.70;;;22.60;47.60;;;;;;4977118;28;20340;-69
2023/12/22 07:44:16;;;;;;;1.92;0.90;;;22.50;47.90;;;;;;4979419;28;20031;-69
2023/12/22 07:46:42;;;;;;;1.88;0.70;;;22.30;48.10;;;;;;4979244;28;20058;-69
2023/12/22 07:49:08;;;;;;;0.88;0.73;;;22.20;48.20;;;;;;4978049;28;20030;-69
2023/12/22 07:51:33;;;;;;;1.17;0.80;;;22.20;48.30;;;;;;4981419;28;20031;-69
2023/12/22 07:53:59;;;;;;;1.67;0.80;;;22.10;48.50;;;;;;4983667;28;20085;-69
2023/12/22 07:56:24;;;;;;;1.20;0.80;;;22.10;48.60;;;;;;4981236;28;20442;-69
2023/12/22 07:58:50;;;;;;;1.98;0.73;;;22.00;48.60;;;;;;4983254;28;20034;-68
2023/12/22 08:01:16;;;;;;;0.82;0.63;;;22.00;48.70;;;;;;4981254;28;20033;-68
2023/12/22 08:03:41;;;;;;;1.20;0.70;;;21.90;48.90;;;;;;4981591;28;20106;-70
2023/12/22 08:06:07;;;;;;;1.65;0.80;;;21.90;48.90;;;;;;4984019;28;20077;-70
2023/12/22 08:08:34;;;;;;;1.88;0.80;;;21.90;48.90;;;;;;4985716;28;20030;-70
2023/12/22 08:11:00;;;;;;;1.13;0.88;;;21.90;48.90;;;;;;4982362;28;20038;-70
2023/12/22 08:13:25;;;;;;;1.50;0.80;;;21.90;49.10;;;;;;4981558;28;20030;-70
2023/12/22 08:15:51;;;;;;;1.08;0.75;;;21.80;49.10;;;;;;4985362;28;20027;-70
2023/12/22 08:18:16;;;;;;;1.00;0.70;;;21.80;49.10;;;;;;4982245;28;20530;-70
2023/12/22 08:20:42;;;;;;;1.25;0.63;;;21.80;49.10;;;;;;4984331;28;20037;-70
2023/12/22 08:23:08;;;;;;;1.70;0.90;;;21.80;49.10;;;;;;4982793;28;20022;-69
2023/12/22 08:25:34;;;;;;;1.52;0.80;;;21.80;49.30;;;;;;4982197;28;20038;-70
2023/12/22 08:28:00;;;;;;;1.45;0.90;;;21.80;49.60;;;;;;4981281;28;20114;-70
2023/12/22 08:30:26;;;;;;;1.60;0.80;;;21.70;49.70;;;;;;4983395;28;20097;-70
2023/12/22 08:32:52;;;;;;;1.08;0.80;;;21.80;50.30;;;;;;4982194;28;20482;-70
2023/12/22 08:35:17;;;;;;;1.40;0.70;;;21.80;49.70;;;;;;4983311;28;20031;-70
2023/12/22 08:37:43;;;;;;;1.40;0.90;;;21.90;49.60;;;;;;4981385;28;20031;-70
2023/12/22 08:40:09;;;;;;;1.50;0.80;;;22.00;49.50;;;;;;4983234;28;20041;-69
2023/12/22 08:42:34;;;;;;;1.50;0.85;;;22.10;49.40;;;;;;4979190;28;20038;-69
2023/12/22 08:45:00;;;;;;;1.55;0.95;;;22.10;49.20;;;;;;4984353;28;20033;-69
2023/12/22 08:47:26;;;;;;;1.27;0.90;;;22.10;49.10;;;;;;4981043;28;20038;-70
2023/12/22 08:49:51;;;;;;;1.52;0.82;;;22.20;49.20;;;;;;4980835;28;20514;-70
2023/12/22 08:52:17;;;;;;;1.48;0.70;;;22.10;49.30;;;;;;4982546;28;20030;-69
2023/12/22 08:54:42;;;;;;;1.55;0.80;;;22.10;49.30;;;;;;4983026;28;20546;-69
2023/12/22 08:57:09;;;;;;;1.85;0.93;;;22.20;49.40;;;;;;4979595;28;20027;-70
2023/12/22 08:59:34;;;;;;;1.40;0.80;;;22.20;49.40;;;;;;4985152;28;20034;-69
2023/12/22 09:02:01;;;;;;;1.23;0.80;;;22.20;49.20;;;;;;4980779;28;20510;-69
2023/12/22 09:04:27;;;;;;;1.40;0.80;;;22.30;49.10;;;;;;4981285;28;20038;-68
2023/12/22 09:06:52;;;;;;;1.15;0.70;;;22.40;48.90;;;;;;4982251;28;20502;-69
2023/12/22 09:09:18;;;;;;;1.65;0.80;;;22.40;49.00;;;;;;4980785;28;20782;-68
2023/12/22 09:11:44;;;;;;;1.50;0.80;;;22.40;49.00;;;;;;4981327;28;20495;-68
2023/12/22 09:14:10;;;;;;;1.23;0.80;;;22.40;49.10;;;;;;4979591;28;20034;-70
2023/12/22 09:16:36;;;;;;;1.25;0.80;;;22.40;49.00;;;;;;4980608;28;20034;-69
2023/12/22 09:19:03;;;;;;;1.80;1.00;;;22.50;49.00;;;;;;4981818;28;20035;-70
2023/12/22 09:21:28;;;;;;;1.80;0.80;;;22.50;48.80;;;;;;4981381;28;20466;-70
2023/12/22 09:23:54;;;;;;;1.63;0.90;;;22.60;48.80;;;;;;4980402;28;20085;-69
2023/12/22 09:26:20;;;;;;;2.00;1.00;;;22.70;48.70;;;;;;4998582;28;20022;-68
2023/12/22 09:28:46;;;;;;;1.35;0.85;;;22.70;48.60;;;;;;4996655;28;20149;-69
2023/12/22 09:31:15;;;;;;;1.10;0.80;;;22.70;48.40;;;;;;4982491;28;20030;-68
2023/12/22 09:33:42;;;;;;;1.25;0.73;;;22.70;48.40;;;;;;4981507;28;20120;-68
2023/12/22 09:36:08;;;;;;;1.58;0.90;;;22.70;48.50;;;;;;4995276;28;20043;-68
2023/12/22 09:38:34;;;;;;;1.40;0.90;;;22.70;48.50;;;;;;4981451;28;20103;-68
2023/12/22 09:41:00;;;;;;;0.98;0.80;;;22.70;48.40;;;;;;4995316;28;20395;-68
2023/12/22 09:43:26;;;;;;;1.63;0.80;;;22.80;48.30;;;;;;4978436;28;20034;-68
2023/12/22 09:45:52;;;;;;;1.00;0.80;;;22.70;48.30;;;;;;4981137;28;20034;-68
2023/12/22 09:48:26;;;;;;;1.38;0.70;;;22.70;48.30;;;;;;4978961;28;20049;-68
2023/12/22 09:50:52;;;;;;;1.52;0.98;;;22.70;48.30;;;;;;4979110;28;20038;-68
2023/12/22 09:53:20;;;;;;;1.30;0.90;;;22.70;48.30;;;;;;4981656;28;20030;-68
2023/12/22 09:55:46;;;;;;;1.55;0.80;;;22.70;48.40;;;;;;4979493;28;20031;-68
2023/12/22 09:58:14;;;;;;;1.63;0.90;;;22.60;48.40;;;;;;4979374;28;20040;-68
2023/12/22 10:00:40;;;;;;;1.13;0.80;;;22.60;48.30;;;;;;4979416;28;20023;-67
2023/12/22 10:03:12;;;;;;;1.80;0.90;;;22.60;48.90;;;;;;4980213;28;20029;-67
2023/12/22 10:05:39;;;;;;;1.27;0.82;;;22.60;48.30;;;;;;4981275;28;20044;-68
2023/12/22 10:08:05;;;;;;;1.88;0.90;;;22.50;48.40;;;;;;4980047;28;20023;-67
2023/12/22 10:10:32;;;;;;;1.73;0.80;;;22.50;48.40;;;;;;4980805;28;20070;-68
2023/12/22 10:12:59;;;;;;;1.58;0.80;;;22.50;48.50;;;;;;4979505;28;20022;-68
2023/12/22 10:15:26;;;;;;;1.42;0.90;;;22.50;48.50;;;;;;4980485;28;20078;-68
2023/12/22 10:17:53;;;;;;;0.90;0.75;;;22.40;48.60;;;;;;4981433;28;20142;-69
2023/12/22 10:20:19;;;;;;;1.65;0.90;;;22.40;48.60;;;;;;4980871;28;20872;-68
2023/12/22 10:22:44;;;;;;;1.48;0.88;;;22.40;48.70;;;;;;4980612;28;20120;-70
2023/12/22 10:25:10;;;;;;;1.75;1.00;;;22.40;48.60;;;;;;4978043;28;20046;-69
2023/12/22 10:27:36;;;;;;;2.03;1.00;;;22.30;48.50;;;;;;4978276;28;20799;-69
2023/12/22 10:30:03;;;;;;;1.65;1.00;;;22.30;48.50;;;;;;4979014;28;20137;-69
2023/12/22 10:32:29;;;;;;;1.60;0.80;;;22.30;48.60;;;;;;4978365;28;20398;-67
2023/12/22 10:34:56;;;;;;;1.33;0.70;;;22.30;48.70;;;;;;4978468;28;20031;-68
2023/12/22 10:37:23;;;;;;;1.98;1.10;;;22.20;48.70;;;;;;4980993;28;20037;-67
2023/12/22 10:39:52;;;;;;;1.52;0.80;;;22.20;48.70;;;;;;4981263;28;20506;-67
2023/12/22 10:42:18;;;;;;;;;;;22.20;48.70;;;;;;4981449;28;20037;-69
2023/12/22 10:44:44;;;;;;;1.90;0.95;;;22.20;48.80;;;;;;4979362;28;19906;-67
2023/12/22 10:47:10;;;;;;;1.38;0.90;;;22.20;48.80;;;;;;4982041;28;20034;-67
2023/12/22 10:49:36;;;;;;;1.38;0.80;;;22.20;48.80;;;;;;4980525;28;20109;-67
2023/12/22 10:52:02;;;;;;;2.25;0.90;;;22.20;49.00;;;;;;4979107;28;20117;-68
2023/12/22 10:54:29;;;;;;;1.58;0.90;;;22.10;48.90;;;;;;4980143;28;20114;-68
2023/12/22 10:56:59;;;;;;;1.30;0.77;;;22.10;49.00;;;;;;4979794;28;20031;-67
2023/12/22 10:59:28;;;;;;;1.63;0.88;;;22.10;49.10;;;;;;4979785;28;20115;-67
2023/12/22 11:01:57;;;;;;;1.73;0.90;;;22.10;49.20;;;;;;4995427;28;20026;-68
2023/12/22 11:04:31;;;;;;;1.17;0.77;;;22.10;49.20;;;;;;4981591;28;20027;-68
2023/12/22 11:06:58;;;;;;;1.13;0.80;;;22.10;49.20;;;;;;4979886;28;20027;-68
2023/12/22 11:09:28;;;;;;;1.30;0.80;;;22.10;49.30;;;;;;4995026;28;20390;-68
2023/12/22 11:12:01;;;;;;;0.93;0.63;;;22.00;49.20;;;;;;4981073;28;20023;-68
2023/12/22 11:14:28;;;;;;;0.70;0.70;;;22.00;49.20;;;;;;4979244;28;20467;-68
2023/12/22 11:16:55;;;;;;;1.20;0.70;;;22.00;49.30;;;;;;4978412;28;20066;-68
2023/12/22 11:19:22;;;;;;;1.10;0.80;;;22.00;49.40;;;;;;4980343;28;20042;-68
2023/12/22 11:21:50;;;;;;;1.05;0.82;;;22.00;49.40;;;;;;4978173;28;20057;-68
2023/12/22 11:24:16;;;;;;;2.35;0.80;;;22.00;49.50;;;;;;4978583;28;20070;-68
2023/12/22 11:26:42;;;;;;;1.23;0.70;;;22.00;49.50;;;;;;4979980;28;20482;-67
2023/12/22 11:29:10;;;;;;;1.60;0.90;;;22.00;49.40;;;;;;4976879;28;20034;-67
2023/12/22 11:31:37;;;;;;;1.58;0.90;;;22.00;49.40;;;;;;4978953;28;20058;-67
2023/12/22 11:34:05;;;;;;;1.90;0.90;;;21.90;49.40;;;;;;4980329;28;20011;-68
2023/12/22 11:36:31;;;;;;;1.17;0.73;;;21.90;49.40;;;;;;4978756;28;20026;-68
2023/12/22 11:38:57;;;;;;;1.70;1.02;;;21.90;49.40;;;;;;4977465;28;20039;-68
2023/12/22 11:41:28;;;;;;;2.20;1.20;;;21.90;49.50;;;;;;4993815;28;20487;-68
2023/12/22 11:43:56;;;;;;;2.70;1.40;;;21.90;49.40;;;;;;4994204;28;20030;-70
2023/12/22 11:46:23;;;;;;;3.05;1.70;;;21.90;49.50;;;;;;4992063;28;20029;-69
2023/12/22 11:48:50;;;;;;;3.45;2.05;;;21.90;49.50;;;;;;4981038;28;20026;-69
2023/12/22 11:51:17;;;;;;;3.83;2.50;;;21.90;49.50;;;;;;4980549;28;20058;-69
2023/12/22 11:53:43;;;;;;;3.33;1.88;;;21.80;49.50;;;;;;4976871;28;20106;-69
2023/12/22 11:56:10;;;;;;;4.55;2.13;;;21.80;49.50;;;;;;4979550;28;20101;-69
2023/12/22 11:58:58;;;;;;;3.53;2.00;;;21.90;49.60;;;;;;4978878;28;20126;-69
2023/12/22 12:01:25;;;;;;;3.60;2.30;;;21.80;49.60;;;;;;4978684;28;20114;-69
2023/12/22 12:03:53;;;;;;;3.35;2.17;;;21.80;49.60;;;;;;4980264;28;20434;-69
2023/12/22 12:06:30;;;;;;;4.05;2.38;;;21.80;49.70;;;;;;4979558;28;20018;-69
2023/12/22 12:09:04;;;;;;;5.00;2.55;;;21.80;49.60;;;;;;4993809;28;20113;-69
2023/12/22 12:11:51;;;;;;;6.00;2.60;;;21.80;49.60;;;;;;4979426;28;20078;-70
2023/12/22 12:14:21;;;;;;;4.45;2.70;;;21.80;49.60;;;;;;4993413;28;20054;-69
2023/12/22 12:16:48;;;;;;;5.05;2.63;;;21.80;49.60;;;;;;4979100;28;20057;-69
2023/12/22 12:19:14;;;;;;;4.78;2.47;;;21.80;49.60;;;;;;4978023;28;20108;-69
2023/12/22 12:21:40;;;;;;;4.35;2.40;;;21.80;49.70;;;;;;4980080;28;20116;-69
2023/12/22 12:24:06;;;;;;;5.72;2.88;;;21.70;49.60;;;;;;4981438;28;20066;-69
2023/12/22 12:26:33;;;;;;;4.25;2.35;;;21.80;49.70;;;;;;4978114;28;20045;-69
2023/12/22 12:28:59;;;;;;;5.05;2.95;;;21.70;49.60;;;;;;4976897;28;20099;-69
2023/12/22 12:31:41;;;;;;;4.75;2.58;;;21.70;49.60;;;;;;4978215;28;20023;-69
2023/12/22 12:34:08;;;;;;;4.78;2.75;;;21.70;49.70;;;;;;4981184;28;20375;-69
2023/12/22 12:36:34;;;;;;;5.32;3.10;;;21.70;49.70;;;;;;4980004;28;20029;-69
2023/12/22 12:39:07;;;;;;;4.72;2.50;;;21.70;49.70;;;;;;4979151;28;20022;-69
2023/12/22 12:41:39;;;;;;;4.82;2.90;;;21.70;49.70;;;;;;4980452;28;20391;-69
2023/12/22 12:44:06;;;;;;;5.10;2.80;;;21.70;49.70;;;;;;4983943;28;20030;-69